Time;durP1;ratioP1;P1;durP2;ratioP2;P2;SDS_P1;SDS_P2;PMS_P1;PMS_P2;Temp;Humidity;BMP_temperature;BMP_pressure;BME280_temperature;BME280_humidity;BME280_pressure;Samples;Min_cycle;Max_cycle;Signal;HPM_P1;HPM_P2
2022/12/11 00:00:06;;;;;;;100.93;26.38;;;-0.70;99.90;;;;;;5113145;27;20441;-83
2022/12/11 00:02:32;;;;;;;106.18;25.55;;;-0.60;99.90;;;;;;5112961;28;20070;-82
2022/12/11 00:04:58;;;;;;;99.88;24.27;;;-0.50;99.90;;;;;;5092769;28;20087;-82
2022/12/11 00:07:23;;;;;;;101.43;25.27;;;-0.60;99.90;;;;;;5079787;28;20048;-82
2022/12/11 00:09:49;;;;;;;125.10;26.17;;;-0.60;99.90;;;;;;5106229;28;20526;-82
2022/12/11 00:12:15;;;;;;;107.88;24.00;;;-0.40;99.90;;;;;;5096011;28;20047;-82
2022/12/11 00:14:40;;;;;;;115.20;25.88;;;-0.50;99.90;;;;;;5095753;28;20048;-82
2022/12/11 00:17:06;;;;;;;126.32;25.95;;;-0.50;99.90;;;;;;5095458;28;20130;-82
2022/12/11 00:19:31;;;;;;;104.75;25.48;;;-0.50;99.90;;;;;;5078554;28;20092;-82
2022/12/11 00:21:57;;;;;;;120.82;24.77;;;-0.50;99.90;;;;;;5112458;28;20097;-82
2022/12/11 00:24:23;;;;;;;144.35;26.17;;;-0.50;99.90;;;;;;5081462;28;20079;-83
2022/12/11 00:26:48;;;;;;;126.35;25.95;;;-0.50;99.90;;;;;;5090425;28;20052;-82
2022/12/11 00:29:14;;;;;;;150.52;27.92;;;-0.50;99.90;;;;;;5090016;28;20443;-83
2022/12/11 00:31:41;;;;;;;142.52;26.83;;;-0.40;99.90;;;;;;5093326;27;20772;-82
2022/12/11 00:34:07;;;;;;;156.10;26.98;;;-0.40;99.90;;;;;;5087921;28;20100;-81
2022/12/11 00:36:33;;;;;;;152.40;30.05;;;-0.40;99.90;;;;;;5104910;28;20128;-81
2022/12/11 00:39:00;;;;;;;114.40;24.52;;;-0.40;99.90;;;;;;5118947;27;20047;-82
2022/12/11 00:41:26;;;;;;;132.27;26.75;;;-0.40;99.90;;;;;;5088251;28;20379;-85
2022/12/11 00:43:51;;;;;;;141.48;27.70;;;-0.40;99.90;;;;;;5111720;27;20059;-82
2022/12/11 00:46:17;;;;;;;123.05;25.77;;;-0.40;99.90;;;;;;5066255;28;20048;-82
2022/12/11 00:48:43;;;;;;;113.68;25.33;;;-0.40;99.90;;;;;;5090360;28;20098;-83
2022/12/11 00:51:09;;;;;;;128.98;27.63;;;-0.40;99.90;;;;;;5086757;28;20511;-84
2022/12/11 00:53:36;;;;;;;140.75;28.23;;;-0.40;99.90;;;;;;5079546;28;20054;-86
2022/12/11 00:56:09;;;;;;;127.32;26.77;;;-0.30;99.90;;;;;;5110722;28;20051;-87
2022/12/11 00:58:34;;;;;;;138.48;26.38;;;-0.30;99.90;;;;;;5102979;28;20050;-82
2022/12/11 01:01:14;;;;;;;136.63;27.90;;;-0.30;99.90;;;;;;5092710;28;20477;-84
2022/12/11 01:03:40;;;;;;;125.10;26.10;;;-0.30;99.90;;;;;;5110620;27;20048;-82
2022/12/11 01:06:06;;;;;;;147.88;27.27;;;-0.30;99.90;;;;;;5086550;28;20054;-83
2022/12/11 01:08:32;;;;;;;147.40;27.30;;;-0.30;99.90;;;;;;5077218;28;20047;-82
2022/12/11 01:11:06;;;;;;;137.90;27.33;;;-0.30;99.90;;;;;;5093784;28;20040;-82
2022/12/11 01:13:32;;;;;;;155.80;27.90;;;-0.30;99.90;;;;;;5091255;28;20065;-82
2022/12/11 01:15:57;;;;;;;128.85;26.38;;;-0.30;99.90;;;;;;5087471;28;20047;-82
2022/12/11 01:18:24;;;;;;;125.70;25.65;;;-0.20;99.90;;;;;;5111288;28;20042;-83
2022/12/11 01:20:50;;;;;;;132.30;26.67;;;-0.20;99.90;;;;;;5094568;28;20050;-81
2022/12/11 01:23:15;;;;;;;152.90;28.73;;;-0.20;99.90;;;;;;5093973;28;20043;-82
2022/12/11 01:25:42;;;;;;;142.73;28.20;;;-0.20;99.90;;;;;;5111329;28;20031;-82
2022/12/11 01:28:08;;;;;;;131.80;27.00;;;-0.10;99.90;;;;;;5110626;28;20531;-82
2022/12/11 01:30:34;;;;;;;137.98;27.20;;;-0.20;99.90;;;;;;5088582;28;20097;-83
2022/12/11 01:33:00;;;;;;;115.05;25.10;;;-0.10;99.90;;;;;;5105385;28;20074;-83
2022/12/11 01:35:26;;;;;;;143.93;28.15;;;-0.20;99.90;;;;;;5068528;28;20079;-84
2022/12/11 01:37:51;;;;;;;132.20;27.10;;;-0.20;99.90;;;;;;5098116;28;20059;-82
2022/12/11 01:40:18;;;;;;;145.40;28.70;;;-0.20;99.90;;;;;;5103253;28;20050;-82
2022/12/11 01:42:44;;;;;;;134.40;26.65;;;-0.10;99.90;;;;;;5073069;28;20077;-83
2022/12/11 01:45:25;;;;;;;125.20;27.13;;;-0.20;99.90;;;;;;5074999;28;20073;-84
2022/12/11 01:47:59;;;;;;;143.70;27.77;;;-0.10;99.90;;;;;;5087978;28;20059;-82
2022/12/11 01:50:25;;;;;;;139.88;27.90;;;-0.10;99.90;;;;;;5082250;28;20519;-82
2022/12/11 01:52:51;;;;;;;122.50;26.83;;;-0.10;99.90;;;;;;5104785;28;20126;-83
2022/12/11 01:55:19;;;;;;;151.23;28.02;;;0.00;99.90;;;;;;5083321;28;20057;-82
2022/12/11 01:57:48;;;;;;;148.38;27.33;;;-0.10;99.90;;;;;;5089258;28;20043;-82
2022/12/11 02:00:14;;;;;;;140.23;28.40;;;-0.10;99.90;;;;;;5119515;27;20115;-84
2022/12/11 02:02:40;;;;;;;141.25;26.85;;;-0.10;99.90;;;;;;5091967;28;20139;-82
2022/12/11 02:05:07;;;;;;;167.88;28.70;;;-0.10;99.90;;;;;;5085207;28;20142;-83
2022/12/11 02:07:39;;;;;;;143.98;27.95;;;0.00;99.90;;;;;;5102520;28;20031;-84
2022/12/11 02:10:06;;;;;;;152.00;28.60;;;0.00;99.90;;;;;;5114171;27;20081;-83
2022/12/11 02:12:40;;;;;;;142.60;27.42;;;0.00;99.90;;;;;;5074792;28;20051;-83
2022/12/11 02:15:22;;;;;;;138.05;26.55;;;0.00;99.90;;;;;;5093719;28;20051;-83
2022/12/11 02:18:39;;;;;;;126.30;25.73;;;0.00;99.90;;;;;;5096683;28;20048;-82
2022/12/11 02:21:38;;;;;;;149.27;27.88;;;0.00;99.90;;;;;;5025963;28;20529;-82
2022/12/11 02:24:37;;;;;;;148.40;27.13;;;0.00;99.90;;;;;;5062817;28;20066;-88
2022/12/11 02:27:31;;;;;;;144.23;27.27;;;0.00;99.90;;;;;;5098026;28;20047;-85
2022/12/11 02:30:02;;;;;;;140.60;25.95;;;0.00;99.90;;;;;;5091803;28;20058;-82
2022/12/11 02:32:46;;;;;;;133.77;25.42;;;0.00;99.90;;;;;;5110783;28;20047;-88
2022/12/11 02:35:32;;;;;;;135.07;26.25;;;0.00;99.90;;;;;;5107376;28;20127;-82
2022/12/11 02:38:09;;;;;;;131.15;27.25;;;0.00;99.90;;;;;;5087269;28;20116;-83
2022/12/11 02:40:38;;;;;;;130.10;23.95;;;0.00;99.90;;;;;;5083996;28;20054;-84
2022/12/11 02:43:08;;;;;;;130.23;25.52;;;0.00;99.90;;;;;;5104623;28;20097;-86
2022/12/11 02:45:36;;;;;;;132.85;27.05;;;0.00;99.90;;;;;;5109067;28;20054;-82
2022/12/11 02:48:04;;;;;;;106.20;24.35;;;0.10;99.90;;;;;;5109812;28;20039;-83
2022/12/11 02:50:32;;;;;;;117.43;24.45;;;0.00;99.90;;;;;;5083513;28;20063;-82
2022/12/11 02:53:00;;;;;;;131.10;24.77;;;0.10;99.90;;;;;;5060315;28;20134;-82
2022/12/11 02:55:28;;;;;;;128.40;25.08;;;0.10;99.90;;;;;;5062140;28;20044;-82
2022/12/11 02:58:11;;;;;;;135.48;25.65;;;0.10;99.90;;;;;;5111180;27;20052;-82
2022/12/11 03:00:37;;;;;;;117.93;23.60;;;0.10;99.90;;;;;;5109949;28;20051;-82
2022/12/11 03:03:03;;;;;;;148.32;26.08;;;0.10;99.90;;;;;;5109710;27;20040;-82
2022/12/11 03:05:29;;;;;;;126.40;24.20;;;0.10;99.90;;;;;;5073819;28;20098;-82
2022/12/11 03:07:55;;;;;;;128.63;24.27;;;0.20;99.90;;;;;;5093583;28;20397;-83
2022/12/11 03:10:21;;;;;;;127.00;24.27;;;0.20;99.90;;;;;;5118305;27;20062;-82
2022/12/11 03:12:51;;;;;;;120.68;26.13;;;0.10;99.90;;;;;;5076933;28;20386;-82
2022/12/11 03:15:20;;;;;;;113.65;22.77;;;0.20;99.90;;;;;;5074547;28;20114;-83
2022/12/11 03:18:14;;;;;;;114.40;23.70;;;0.20;99.90;;;;;;5101660;28;20051;-83
2022/12/11 03:20:46;;;;;;;120.28;23.63;;;0.20;99.90;;;;;;5084095;28;20370;-83
2022/12/11 03:23:37;;;;;;;103.95;21.05;;;0.20;99.90;;;;;;5076209;28;20409;-84
2022/12/11 03:26:08;;;;;;;105.45;22.05;;;0.20;99.90;;;;;;5075221;28;20139;-82
2022/12/11 03:28:42;;;;;;;128.20;22.67;;;0.20;99.90;;;;;;5092982;28;20469;-83
2022/12/11 03:31:12;;;;;;;119.93;22.90;;;0.20;99.90;;;;;;5075341;28;20040;-82
2022/12/11 03:33:41;;;;;;;134.30;24.38;;;0.30;99.90;;;;;;5103787;28;20057;-82
2022/12/11 03:36:10;;;;;;;108.75;23.98;;;0.30;99.90;;;;;;5118536;27;20485;-83
2022/12/11 03:38:40;;;;;;;122.20;24.05;;;0.20;99.90;;;;;;5076071;28;20044;-83
2022/12/11 03:41:07;;;;;;;125.63;25.55;;;0.30;99.90;;;;;;5077720;28;20051;-85
2022/12/11 03:43:34;;;;;;;150.25;25.33;;;0.30;99.90;;;;;;5113435;27;20595;-82
2022/12/11 03:46:00;;;;;;;138.02;24.27;;;0.30;99.90;;;;;;5089004;28;20067;-82
2022/12/11 03:48:34;;;;;;;138.77;23.45;;;0.30;99.90;;;;;;5073039;28;20044;-83
2022/12/11 03:51:02;;;;;;;138.70;25.10;;;0.30;99.90;;;;;;5108368;28;20134;-83
2022/12/11 03:53:29;;;;;;;130.02;24.55;;;0.30;99.90;;;;;;5110925;28;20766;-86
2022/12/11 03:55:57;;;;;;;128.50;24.90;;;0.30;99.90;;;;;;5095039;28;20447;-83
2022/12/11 03:58:22;;;;;;;149.07;25.92;;;0.30;99.90;;;;;;5091357;28;20052;-83
2022/12/11 04:00:48;;;;;;;139.77;25.88;;;0.30;99.90;;;;;;5088206;28;20047;-83
2022/12/11 04:03:15;;;;;;;136.05;24.83;;;0.30;99.90;;;;;;5095955;28;20385;-83
2022/12/11 04:05:49;;;;;;;128.00;24.02;;;0.30;99.90;;;;;;5105081;28;20082;-82
2022/12/11 04:08:16;;;;;;;133.27;25.38;;;0.30;99.90;;;;;;5101523;28;20047;-85
2022/12/11 04:10:42;;;;;;;148.70;26.98;;;0.30;99.90;;;;;;5078638;28;20050;-82
2022/12/11 04:13:09;;;;;;;135.50;25.67;;;0.30;99.90;;;;;;5093904;28;20048;-82
2022/12/11 04:15:35;;;;;;;160.13;25.33;;;0.30;99.90;;;;;;5095601;28;20040;-83
2022/12/11 04:26:16;;;;;;;150.20;26.38;;;0.30;99.90;;;;;;5094673;28;20050;-85
2022/12/11 04:28:44;;;;;;;153.98;26.55;;;0.30;99.90;;;;;;5077804;28;20130;-82
2022/12/11 04:31:15;;;;;;;132.15;25.48;;;0.30;99.90;;;;;;5104618;28;20048;-83
2022/12/11 04:33:40;;;;;;;119.32;25.55;;;0.30;99.90;;;;;;5100639;28;20792;-85
2022/12/11 04:36:07;;;;;;;128.35;25.67;;;0.30;99.90;;;;;;5078468;28;20059;-82
2022/12/11 04:38:33;;;;;;;151.18;25.60;;;0.30;99.90;;;;;;5089912;28;20047;-82
2022/12/11 04:41:00;;;;;;;147.02;25.83;;;0.30;99.90;;;;;;5085680;28;20569;-82
2022/12/11 04:43:26;;;;;;;142.98;26.17;;;0.40;99.90;;;;;;5098513;28;20036;-81
2022/12/11 04:46:11;;;;;;;132.10;25.42;;;0.30;99.90;;;;;;5068845;28;20164;-82
2022/12/11 04:48:38;;;;;;;140.15;26.98;;;0.30;99.90;;;;;;5111892;28;20079;-82
2022/12/11 04:51:04;;;;;;;153.10;28.65;;;0.30;99.90;;;;;;5107416;28;20127;-83
2022/12/11 04:53:30;;;;;;;129.05;25.08;;;0.30;99.90;;;;;;5107185;28;20047;-82
2022/12/11 04:55:56;;;;;;;149.20;26.50;;;0.30;99.90;;;;;;5105594;28;20047;-83
2022/12/11 04:58:23;;;;;;;138.95;26.65;;;0.30;99.90;;;;;;5097556;28;20055;-86
2022/12/11 05:00:48;;;;;;;135.88;26.75;;;0.30;99.90;;;;;;5075168;28;20046;-82
2022/12/11 05:03:14;;;;;;;129.90;25.10;;;0.30;99.90;;;;;;5091070;28;20485;-83
2022/12/11 05:05:40;;;;;;;108.13;25.00;;;0.30;99.90;;;;;;5073917;28;20044;-82
2022/12/11 05:08:07;;;;;;;122.35;25.75;;;0.30;99.90;;;;;;5089368;28;20047;-82
2022/12/11 05:10:32;;;;;;;129.38;25.98;;;0.30;99.90;;;;;;5092291;28;20044;-82
2022/12/11 05:12:58;;;;;;;117.00;25.58;;;0.30;99.90;;;;;;5102684;28;20142;-82
2022/12/11 05:15:23;;;;;;;124.60;27.10;;;0.30;99.90;;;;;;5093543;28;20047;-81
2022/12/11 05:17:49;;;;;;;122.88;26.10;;;0.30;99.90;;;;;;5102571;28;20060;-82
2022/12/11 05:20:15;;;;;;;110.30;25.65;;;0.30;99.90;;;;;;5075129;28;20056;-82
2022/12/11 05:22:41;;;;;;;116.20;25.20;;;0.30;99.90;;;;;;5066656;28;20079;-82
2022/12/11 05:25:07;;;;;;;125.25;24.58;;;0.30;99.90;;;;;;5094035;28;20078;-83
2022/12/11 05:27:32;;;;;;;119.78;24.75;;;0.30;99.90;;;;;;5074941;28;20044;-83
2022/12/11 05:29:58;;;;;;;108.43;24.95;;;0.30;99.90;;;;;;5107226;28;20036;-87
2022/12/11 05:32:24;;;;;;;126.47;23.55;;;0.30;99.90;;;;;;5096043;28;20119;-82
2022/12/11 05:34:50;;;;;;;109.18;24.15;;;0.30;99.90;;;;;;5092274;28;20067;-84
2022/12/11 05:37:16;;;;;;;115.57;24.58;;;0.30;99.90;;;;;;5091404;28;20051;-83
2022/12/11 05:39:41;;;;;;;104.15;23.08;;;0.30;99.90;;;;;;5109397;28;20044;-83
2022/12/11 05:42:07;;;;;;;95.07;23.20;;;0.30;99.90;;;;;;5093657;28;20047;-83
2022/12/11 05:44:33;;;;;;;86.47;21.73;;;0.30;99.90;;;;;;5091544;28;20035;-83
2022/12/11 05:46:58;;;;;;;95.30;23.67;;;0.30;99.90;;;;;;5093284;28;20086;-83
2022/12/11 05:49:24;;;;;;;102.03;22.52;;;0.30;99.90;;;;;;5088792;28;21030;-82
2022/12/11 05:51:50;;;;;;;107.15;24.10;;;0.30;99.90;;;;;;5089602;28;20211;-84
2022/12/11 05:54:15;;;;;;;95.35;22.83;;;0.30;99.90;;;;;;5088729;28;20094;-84
2022/12/11 05:56:41;;;;;;;99.47;23.13;;;0.30;99.90;;;;;;5093769;28;20039;-83
2022/12/11 05:59:07;;;;;;;114.15;24.65;;;0.40;99.90;;;;;;5067682;28;20055;-83
2022/12/11 06:01:41;;;;;;;99.97;22.05;;;0.30;99.90;;;;;;5096775;28;20048;-86
2022/12/11 06:04:09;;;;;;;110.30;23.48;;;0.40;99.90;;;;;;5092620;28;20043;-83
2022/12/11 06:06:35;;;;;;;110.93;23.40;;;0.40;99.90;;;;;;5108748;28;20109;-83
2022/12/11 06:09:02;;;;;;;115.97;25.15;;;0.40;99.90;;;;;;5089342;28;20051;-82
2022/12/11 06:11:29;;;;;;;114.03;25.20;;;0.40;99.90;;;;;;5093848;28;20070;-83
2022/12/11 06:13:55;;;;;;;117.20;24.67;;;0.40;99.90;;;;;;5073642;28;20056;-86
2022/12/11 06:16:21;;;;;;;113.10;23.90;;;0.40;99.90;;;;;;5082625;28;20058;-82
2022/12/11 06:18:47;;;;;;;109.43;23.23;;;0.40;99.90;;;;;;5110290;28;20135;-83
2022/12/11 06:21:18;;;;;;;113.72;24.95;;;0.50;99.90;;;;;;5077697;28;20088;-83
2022/12/11 06:23:45;;;;;;;108.55;23.92;;;0.40;99.90;;;;;;5096983;28;20051;-83
2022/12/11 06:26:11;;;;;;;102.25;23.73;;;0.40;99.90;;;;;;5078775;28;20047;-82
2022/12/11 06:28:37;;;;;;;128.95;24.23;;;0.40;99.90;;;;;;5097177;28;20054;-86
2022/12/11 06:31:03;;;;;;;111.55;22.67;;;0.40;99.90;;;;;;5097754;27;20053;-83
2022/12/11 06:33:29;;;;;;;120.63;23.60;;;0.40;99.90;;;;;;5096301;28;20051;-83
2022/12/11 06:35:55;;;;;;;107.57;25.20;;;0.40;99.90;;;;;;5113310;28;20584;-83
2022/12/11 06:38:21;;;;;;;108.85;22.85;;;0.50;99.90;;;;;;5110867;28;20051;-84
2022/12/11 06:40:54;;;;;;;114.95;23.35;;;0.40;99.90;;;;;;5109761;28;20043;-83
2022/12/11 06:43:20;;;;;;;120.65;24.25;;;0.40;99.90;;;;;;5108161;28;20036;-83
2022/12/11 06:45:46;;;;;;;110.15;22.77;;;0.50;99.90;;;;;;5080855;28;20048;-82
2022/12/11 06:48:11;;;;;;;108.75;22.20;;;0.40;99.90;;;;;;5072027;28;20051;-83
2022/12/11 06:50:37;;;;;;;118.82;22.85;;;0.40;99.90;;;;;;5105088;28;20048;-85
2022/12/11 06:53:03;;;;;;;110.45;22.10;;;0.40;99.90;;;;;;5069164;28;20706;-85
2022/12/11 06:55:29;;;;;;;103.28;22.77;;;0.40;99.90;;;;;;5091754;28;20059;-82
2022/12/11 06:57:54;;;;;;;98.75;22.98;;;0.40;99.90;;;;;;5086213;28;20047;-83
2022/12/11 07:00:20;;;;;;;106.95;22.85;;;0.50;99.90;;;;;;5067987;28;20535;-83
2022/12/11 07:02:46;;;;;;;102.20;22.13;;;0.50;99.90;;;;;;5079560;28;20040;-82
2022/12/11 07:05:12;;;;;;;105.32;22.52;;;0.50;99.90;;;;;;5088045;28;20480;-82
2022/12/11 07:07:37;;;;;;;100.72;22.20;;;0.50;99.90;;;;;;5084206;28;20159;-83
2022/12/11 07:10:04;;;;;;;107.38;22.35;;;0.50;99.90;;;;;;5058893;28;20469;-84
2022/12/11 07:12:29;;;;;;;102.00;21.42;;;0.50;99.90;;;;;;5121032;27;20131;-83
2022/12/11 07:14:55;;;;;;;116.47;23.63;;;0.40;99.90;;;;;;5088587;28;20147;-85
2022/12/11 07:17:21;;;;;;;109.88;21.08;;;0.50;99.90;;;;;;5074611;28;20577;-84
2022/12/11 07:19:46;;;;;;;103.43;21.15;;;0.50;99.90;;;;;;5093319;28;20050;-84
2022/12/11 07:22:12;;;;;;;103.07;22.10;;;0.50;99.90;;;;;;5108534;28;20092;-84
2022/12/11 07:24:38;;;;;;;102.43;21.63;;;0.50;99.90;;;;;;5079714;28;20036;-82
2022/12/11 07:27:03;;;;;;;107.00;22.55;;;0.50;99.90;;;;;;5113854;28;20500;-82
2022/12/11 07:29:29;;;;;;;113.85;22.88;;;0.50;99.90;;;;;;5112342;28;20135;-82
2022/12/11 07:31:55;;;;;;;122.72;21.27;;;0.50;99.90;;;;;;5096610;28;20690;-83
2022/12/11 07:34:21;;;;;;;102.50;21.17;;;0.50;99.90;;;;;;5076456;28;20048;-82
2022/12/11 07:36:46;;;;;;;101.10;21.05;;;0.50;99.90;;;;;;5095027;28;20075;-83
2022/12/11 07:39:12;;;;;;;106.55;21.70;;;0.50;99.90;;;;;;5113911;28;20044;-81
2022/12/11 07:41:38;;;;;;;101.57;21.63;;;0.50;99.90;;;;;;5097051;28;20082;-82
2022/12/11 07:44:04;;;;;;;91.07;20.77;;;0.50;99.90;;;;;;5111731;28;20095;-80
2022/12/11 07:46:32;;;;;;;111.22;22.35;;;0.50;99.90;;;;;;5096211;28;20118;-81
2022/12/11 07:48:59;;;;;;;107.97;23.05;;;0.50;99.90;;;;;;5113582;28;20079;-81
2022/12/11 07:51:28;;;;;;;104.28;21.63;;;0.60;99.90;;;;;;5107334;28;20081;-83
2022/12/11 07:54:06;;;;;;;104.88;21.55;;;0.50;99.90;;;;;;5090396;28;20048;-84
2022/12/11 07:56:32;;;;;;;111.20;21.60;;;0.50;99.90;;;;;;5085213;28;20047;-82
2022/12/11 07:59:00;;;;;;;105.32;21.95;;;0.50;99.90;;;;;;5112148;28;20100;-80
2022/12/11 08:01:27;;;;;;;111.90;21.77;;;0.50;99.90;;;;;;5112132;28;20051;-80
2022/12/11 08:03:54;;;;;;;107.30;21.17;;;0.50;99.90;;;;;;5094006;28;20058;-82
2022/12/11 08:06:28;;;;;;;118.80;23.20;;;0.50;99.90;;;;;;5083972;28;20047;-79
2022/12/11 08:08:54;;;;;;;108.85;22.98;;;0.50;99.90;;;;;;5101001;28;20612;-84
2022/12/11 08:11:20;;;;;;;101.22;21.52;;;0.50;99.90;;;;;;5100618;28;20062;-80
2022/12/11 08:13:46;;;;;;;110.93;23.10;;;0.50;99.90;;;;;;5109762;28;20039;-80
2022/12/11 08:16:13;;;;;;;124.60;24.52;;;0.50;99.90;;;;;;5092738;28;20059;-83
2022/12/11 08:18:39;;;;;;;120.75;23.45;;;0.60;99.90;;;;;;5090253;28;20054;-82
2022/12/11 08:21:13;;;;;;;106.53;22.65;;;0.50;99.90;;;;;;5094151;28;20070;-82
2022/12/11 08:23:39;;;;;;;109.95;21.60;;;0.50;99.90;;;;;;5092899;28;20044;-82
2022/12/11 08:26:06;;;;;;;120.20;22.67;;;0.50;99.90;;;;;;5067839;28;20051;-82
2022/12/11 08:28:32;;;;;;;111.00;21.25;;;0.50;99.90;;;;;;5106521;28;20397;-82
2022/12/11 08:30:59;;;;;;;109.82;21.33;;;0.50;99.90;;;;;;5110378;28;20091;-81
2022/12/11 08:33:25;;;;;;;119.47;22.80;;;0.50;99.90;;;;;;5093684;28;20104;-82
2022/12/11 08:35:50;;;;;;;115.30;22.83;;;0.50;99.90;;;;;;5110594;28;20130;-83
2022/12/11 08:38:16;;;;;;;125.43;23.08;;;0.50;99.90;;;;;;5110453;28;20073;-83
2022/12/11 08:40:42;;;;;;;99.38;21.33;;;0.50;99.90;;;;;;5094482;28;20480;-82
2022/12/11 08:43:08;;;;;;;106.18;22.85;;;0.50;99.90;;;;;;5109641;28;20040;-82
2022/12/11 08:45:33;;;;;;;107.28;22.98;;;0.50;99.90;;;;;;5093909;28;20129;-82
2022/12/11 08:47:59;;;;;;;105.13;23.10;;;0.50;99.90;;;;;;5076511;28;20185;-81
2022/12/11 08:50:25;;;;;;;111.60;24.83;;;0.60;99.90;;;;;;5094656;28;20083;-81
2022/12/11 08:52:52;;;;;;;113.20;23.35;;;0.60;99.90;;;;;;5097427;28;20065;-82
2022/12/11 08:55:18;;;;;;;107.22;22.65;;;0.50;99.90;;;;;;5111017;28;20489;-81
2022/12/11 08:57:44;;;;;;;119.35;23.40;;;0.50;99.90;;;;;;5080370;28;20036;-81
2022/12/11 09:00:11;;;;;;;104.03;22.52;;;0.50;99.90;;;;;;5065764;28;20113;-81
2022/12/11 09:02:37;;;;;;;106.50;21.88;;;0.50;99.90;;;;;;5086975;28;20040;-81
2022/12/11 09:05:06;;;;;;;99.85;23.58;;;0.50;99.90;;;;;;5092124;28;20044;-81
2022/12/11 09:07:33;;;;;;;111.80;23.38;;;0.50;99.90;;;;;;5059331;28;20415;-81
2022/12/11 09:09:59;;;;;;;111.85;21.65;;;0.50;99.90;;;;;;5068846;28;20398;-83
2022/12/11 09:12:26;;;;;;;117.57;23.63;;;0.60;99.90;;;;;;5074149;28;20051;-82
2022/12/11 09:14:51;;;;;;;117.25;23.77;;;0.60;99.90;;;;;;5074559;28;20189;-82
2022/12/11 09:17:17;;;;;;;112.55;22.83;;;0.60;99.90;;;;;;5073233;28;20115;-81
2022/12/11 09:19:43;;;;;;;109.22;23.73;;;0.60;99.90;;;;;;5090833;28;20044;-81
2022/12/11 09:22:10;;;;;;;106.85;23.25;;;0.50;99.90;;;;;;5074167;28;20113;-80
2022/12/11 09:24:36;;;;;;;116.05;24.77;;;0.50;99.90;;;;;;5086104;28;20040;-82
2022/12/11 09:27:03;;;;;;;104.30;22.50;;;0.60;99.90;;;;;;5091922;28;20071;-81
2022/12/11 09:29:28;;;;;;;100.65;22.67;;;0.60;99.90;;;;;;5068673;28;20134;-81
2022/12/11 09:31:54;;;;;;;111.60;23.80;;;0.50;99.90;;;;;;5053446;28;20525;-81
2022/12/11 09:34:21;;;;;;;104.60;24.10;;;0.60;99.90;;;;;;5072468;28;20093;-81
2022/12/11 09:36:47;;;;;;;121.30;23.98;;;0.60;99.90;;;;;;5085915;28;20062;-81
2022/12/11 09:39:14;;;;;;;113.30;23.58;;;0.60;99.90;;;;;;5068371;28;20535;-81
2022/12/11 09:41:49;;;;;;;113.53;24.08;;;0.60;99.90;;;;;;5096426;28;20119;-81
2022/12/11 09:44:19;;;;;;;112.88;23.52;;;0.60;99.90;;;;;;5078764;28;20048;-80
2022/12/11 09:46:46;;;;;;;105.32;24.58;;;0.60;99.90;;;;;;5074461;28;20056;-81
2022/12/11 09:49:33;;;;;;;111.85;24.00;;;0.60;99.90;;;;;;5073890;28;20130;-81
2022/12/11 09:52:20;;;;;;;103.43;22.42;;;0.60;99.90;;;;;;5109283;28;20051;-80
2022/12/11 09:54:58;;;;;;;112.22;22.77;;;0.60;99.90;;;;;;5099641;28;20047;-83
2022/12/11 09:57:49;;;;;;;98.45;23.23;;;0.60;99.90;;;;;;5082995;28;20039;-82
2022/12/11 10:00:38;;;;;;;91.97;23.08;;;0.60;99.90;;;;;;5093794;28;20061;-80
2022/12/11 10:03:38;;;;;;;109.13;24.02;;;0.60;99.90;;;;;;5094347;28;20047;-86
2022/12/11 10:06:26;;;;;;;96.60;23.15;;;0.60;99.90;;;;;;5099335;28;20047;-88
2022/12/11 10:09:10;;;;;;;101.38;23.98;;;0.60;99.90;;;;;;5108973;28;20122;-81
2022/12/11 10:12:03;;;;;;;92.63;22.40;;;0.60;99.90;;;;;;5092422;28;20058;-83
2022/12/11 10:15:05;;;;;;;101.15;23.25;;;0.60;99.90;;;;;;5091552;28;20483;-81
2022/12/11 10:17:33;;;;;;;97.80;23.13;;;0.70;99.90;;;;;;5102678;28;20044;-78
2022/12/11 10:20:19;;;;;;;99.88;25.35;;;0.60;99.90;;;;;;5121384;28;20043;-87
2022/12/11 10:22:47;;;;;;;113.88;24.02;;;0.70;99.90;;;;;;5105165;28;20054;-82
2022/12/11 10:25:27;;;;;;;98.55;23.98;;;0.60;99.90;;;;;;5082967;28;20083;-83
2022/12/11 10:27:54;;;;;;;92.13;23.15;;;0.60;99.90;;;;;;5091368;28;20047;-82
2022/12/11 10:30:26;;;;;;;93.85;21.88;;;0.70;99.90;;;;;;5090088;28;20104;-82
2022/12/11 10:32:52;;;;;;;105.05;25.20;;;0.70;99.90;;;;;;5119556;28;20132;-83
2022/12/11 10:35:27;;;;;;;94.95;24.65;;;0.70;99.90;;;;;;5078881;28;20085;-83
2022/12/11 10:38:00;;;;;;;73.22;18.08;;;0.60;99.90;;;;;;5100738;28;20048;-82
2022/12/11 10:40:29;;;;;;;88.25;22.05;;;0.70;99.90;;;;;;5105795;28;20039;-83
2022/12/11 10:42:55;;;;;;;100.30;24.13;;;0.70;99.90;;;;;;5104107;28;20051;-83
2022/12/11 10:45:21;;;;;;;101.85;24.98;;;0.60;99.90;;;;;;5076243;28;20054;-85
2022/12/11 10:47:47;;;;;;;93.82;24.08;;;0.70;99.90;;;;;;5053958;28;20405;-83
2022/12/11 10:50:24;;;;;;;104.85;25.15;;;0.70;99.90;;;;;;5055198;28;20082;-84
2022/12/11 10:52:51;;;;;;;104.05;23.80;;;0.70;99.90;;;;;;5076406;28;20129;-85
2022/12/11 10:55:44;;;;;;;106.35;23.92;;;0.70;99.90;;;;;;5050798;28;20423;-83
2022/12/11 10:58:19;;;;;;;92.07;23.15;;;0.80;99.90;;;;;;5054136;28;20088;-83
2022/12/11 11:00:45;;;;;;;105.65;24.00;;;0.70;99.90;;;;;;5066296;28;20477;-79
2022/12/11 11:03:24;;;;;;;108.03;24.38;;;0.70;99.90;;;;;;5072928;28;20043;-85
2022/12/11 11:06:03;;;;;;;115.07;24.52;;;0.70;99.90;;;;;;5087287;28;20285;-80
2022/12/11 11:08:38;;;;;;;95.35;22.80;;;0.80;99.90;;;;;;5066258;28;20041;-79
2022/12/11 11:11:04;;;;;;;100.22;23.85;;;0.80;99.90;;;;;;5084495;28;20083;-79
2022/12/11 11:13:31;;;;;;;97.20;24.13;;;0.80;99.90;;;;;;5092047;28;20115;-82
2022/12/11 11:16:04;;;;;;;93.28;22.98;;;0.80;99.90;;;;;;5092110;28;20032;-81
2022/12/11 11:18:30;;;;;;;97.00;24.73;;;0.80;99.90;;;;;;5095043;28;20067;-81
2022/12/11 11:20:57;;;;;;;97.45;23.20;;;0.80;99.90;;;;;;5092205;28;20040;-84
2022/12/11 11:23:24;;;;;;;97.15;23.58;;;0.70;99.90;;;;;;5090757;28;20036;-81
2022/12/11 11:25:56;;;;;;;102.53;26.55;;;0.70;99.90;;;;;;5090519;28;20073;-81
2022/12/11 11:28:33;;;;;;;95.32;23.92;;;0.80;99.90;;;;;;5076933;28;20043;-82
2022/12/11 11:31:03;;;;;;;87.63;23.27;;;0.80;99.90;;;;;;5084066;28;20081;-82
2022/12/11 11:33:31;;;;;;;93.85;23.05;;;0.80;99.90;;;;;;5095395;28;20044;-83
2022/12/11 11:36:03;;;;;;;88.80;22.38;;;0.80;99.90;;;;;;5074992;28;20047;-82
2022/12/11 11:38:39;;;;;;;95.25;22.55;;;0.90;99.90;;;;;;5076302;28;20046;-81
2022/12/11 11:41:23;;;;;;;93.00;23.95;;;0.80;99.90;;;;;;5103760;28;20085;-81
2022/12/11 11:44:02;;;;;;;87.13;22.08;;;0.90;99.90;;;;;;5092239;28;20453;-79
2022/12/11 11:46:36;;;;;;;88.40;23.77;;;0.80;99.90;;;;;;5075316;28;20070;-83
2022/12/11 11:49:24;;;;;;;96.45;22.77;;;0.90;99.90;;;;;;5089916;28;20052;-81
2022/12/11 11:51:55;;;;;;;85.85;22.85;;;0.90;99.90;;;;;;5089670;28;20063;-83
2022/12/11 11:54:45;;;;;;;90.40;22.42;;;0.90;99.90;;;;;;5090957;28;20044;-84
2022/12/11 11:57:41;;;;;;;88.55;22.13;;;1.00;99.90;;;;;;5092553;28;20056;-82
2022/12/11 12:00:28;;;;;;;89.82;23.73;;;0.90;99.90;;;;;;5094452;28;20505;-81
2022/12/11 12:02:59;;;;;;;101.32;24.83;;;0.90;99.90;;;;;;5088551;28;20097;-84
2022/12/11 12:05:36;;;;;;;84.35;23.00;;;0.90;99.90;;;;;;5087536;28;20040;-82
2022/12/11 12:08:23;;;;;;;94.90;22.38;;;0.90;99.90;;;;;;5082548;28;20131;-83
2022/12/11 12:11:43;;;;;;;102.45;23.95;;;0.90;99.90;;;;;;5076835;28;20331;-83
2022/12/11 12:14:21;;;;;;;86.75;22.65;;;0.90;99.90;;;;;;5007086;28;20774;-82
2022/12/11 12:16:53;;;;;;;77.25;21.77;;;0.90;99.90;;;;;;5021342;28;20117;-80
2022/12/11 12:19:39;;;;;;;102.28;24.45;;;0.90;99.90;;;;;;5062539;28;20056;-82
2022/12/11 12:22:43;;;;;;;79.82;21.73;;;0.90;99.90;;;;;;5048376;28;20524;-87
2022/12/11 12:25:30;;;;;;;91.32;24.27;;;0.90;99.90;;;;;;5080091;28;20044;-88
2022/12/11 12:28:18;;;;;;;97.75;23.40;;;1.00;99.90;;;;;;5074470;28;20055;-85
2022/12/11 12:31:04;;;;;;;84.82;21.92;;;1.00;99.90;;;;;;5087821;28;20046;-85
2022/12/11 12:33:57;;;;;;;96.07;23.10;;;1.00;99.90;;;;;;5038524;28;20190;-82
2022/12/11 12:36:28;;;;;;;92.97;23.33;;;1.00;99.90;;;;;;5064336;28;20505;-85
2022/12/11 12:39:03;;;;;;;101.15;24.95;;;1.10;99.90;;;;;;5071256;28;20044;-82
2022/12/11 12:41:43;;;;;;;87.22;24.40;;;1.10;99.90;;;;;;5068854;28;20084;-81
2022/12/11 12:44:15;;;;;;;90.88;23.55;;;1.10;99.90;;;;;;5096366;28;20468;-81
2022/12/11 12:46:48;;;;;;;95.85;23.77;;;1.00;99.90;;;;;;5077105;28;20044;-83
2022/12/11 12:49:22;;;;;;;99.95;24.23;;;1.10;99.90;;;;;;5065919;28;20105;-82
2022/12/11 12:51:50;;;;;;;101.03;25.40;;;1.00;99.90;;;;;;5085679;28;20086;-79